createdAt,value
2023-04-23T00:02:47.352Z,20.60
2023-04-23T00:07:56.200Z,22.80
2023-04-23T00:13:04.675Z,19.10
2023-04-23T00:18:12.168Z,23.30
2023-04-23T00:23:19.520Z,32.60
2023-04-23T00:28:27.446Z,24.10
2023-04-23T00:33:35.233Z,23.10
2023-04-23T00:38:42.751Z,23.90
2023-04-23T00:43:53.363Z,24.90
2023-04-23T00:49:01.884Z,25.90
2023-04-23T00:54:10.384Z,25.60
2023-04-23T00:59:18.417Z,27.40
2023-04-23T01:04:30.004Z,25.50
2023-04-23T01:09:37.509Z,28.30
2023-04-23T01:14:45.707Z,22.50
2023-04-23T01:19:53.344Z,29.00
2023-04-23T01:25:01.471Z,20.40
2023-04-23T01:30:11.364Z,25.10
2023-04-23T01:35:19.062Z,19.70
2023-04-23T01:40:26.758Z,22.60
2023-04-23T01:45:35.441Z,20.10
2023-04-23T01:50:44.500Z,18.20
2023-04-23T01:55:53.456Z,15.70
2023-04-23T02:01:01.050Z,20.20
2023-04-23T02:06:09.372Z,19.90
2023-04-23T02:11:16.855Z,17.80
2023-04-23T02:16:25.156Z,21.30
2023-04-23T02:21:33.130Z,15.70
2023-04-23T02:26:40.952Z,20.10
2023-04-23T02:31:48.408Z,15.60
2023-04-23T02:36:56.491Z,17.30
2023-04-23T02:42:04.014Z,16.00
2023-04-23T02:47:11.830Z,15.50
2023-04-23T02:52:19.799Z,14.30
2023-04-23T02:57:27.645Z,16.70
2023-04-23T03:02:35.423Z,15.10
2023-04-23T03:07:43.924Z,15.90
2023-04-23T03:12:51.799Z,13.00
2023-04-23T03:17:59.881Z,13.60
2023-04-23T03:23:08.038Z,16.70
2023-04-23T03:28:16.422Z,12.70
2023-04-23T03:33:25.018Z,11.40
2023-04-23T03:38:32.849Z,10.90
2023-04-23T03:43:41.169Z,12.40
2023-04-23T03:49:12.134Z,11.10
2023-04-23T03:54:20.114Z,9.90
2023-04-23T03:59:43.462Z,15.30
2023-04-23T04:04:52.308Z,8.40
2023-04-23T04:10:00.216Z,11.30
2023-04-23T04:15:09.170Z,14.40
2023-04-23T04:20:17.272Z,14.60
2023-04-23T04:25:25.083Z,13.60
2023-04-23T04:30:32.405Z,10.10
2023-04-23T04:35:39.836Z,13.10
2023-04-23T04:40:49.345Z,8.90
2023-04-23T04:45:59.790Z,10.70
2023-04-23T04:51:08.495Z,10.10
2023-04-23T04:56:15.979Z,9.90
2023-04-23T05:01:25.062Z,11.00
2023-04-23T05:06:33.448Z,10.20
2023-04-23T05:11:41.867Z,12.00
2023-04-23T05:16:50.054Z,12.20
2023-04-23T05:21:59.113Z,11.00
2023-04-23T05:27:07.036Z,15.60
2023-04-23T05:32:15.257Z,18.50
2023-04-23T05:37:23.074Z,12.80
2023-04-23T05:42:30.876Z,15.70
2023-04-23T05:47:38.466Z,12.40
2023-04-23T05:52:46.456Z,14.70
2023-04-23T05:57:54.031Z,12.10
2023-04-23T06:03:01.659Z,13.80
2023-04-23T06:08:09.976Z,11.20
2023-04-23T06:13:18.408Z,12.20
2023-04-23T06:18:28.013Z,9.20
2023-04-23T06:23:37.357Z,9.50
2023-04-23T06:28:45.538Z,9.80
2023-04-23T06:34:05.844Z,10.20
2023-04-23T06:39:13.597Z,10.40
2023-04-23T06:44:21.393Z,9.20
2023-04-23T06:49:37.895Z,10.50
2023-04-23T06:54:45.890Z,8.90
2023-04-23T06:59:53.357Z,9.70
2023-04-23T07:05:02.215Z,10.50
2023-04-23T07:10:13.569Z,10.20
2023-04-23T07:15:22.901Z,9.80
2023-04-23T07:20:30.740Z,8.90
2023-04-23T07:25:39.891Z,10.50
2023-04-23T07:30:47.144Z,8.70
2023-04-23T07:35:54.524Z,11.90
2023-04-23T07:41:01.870Z,13.00
2023-04-23T07:46:10.184Z,12.30
2023-04-23T07:51:17.893Z,11.60
2023-04-23T07:56:26.462Z,9.50
2023-04-23T08:01:34.155Z,9.30
2023-04-23T08:06:42.212Z,8.90
2023-04-23T08:11:49.850Z,7.10
2023-04-23T08:16:57.250Z,10.20
2023-04-23T08:22:04.884Z,11.20
2023-04-23T08:27:12.438Z,8.50
2023-04-23T08:32:19.755Z,10.70
2023-04-23T08:37:31.326Z,9.20
2023-04-23T08:42:44.544Z,8.10
2023-04-23T08:47:52.493Z,7.90
2023-04-23T08:53:00.377Z,9.10
2023-04-23T08:58:08.728Z,9.10
2023-04-23T09:03:17.131Z,6.80
2023-04-23T09:08:25.438Z,5.60
2023-04-23T09:13:33.995Z,6.30
2023-04-23T09:18:41.604Z,7.50
2023-04-23T09:23:53.808Z,8.80
2023-04-23T09:29:01.093Z,7.50
2023-04-23T09:34:09.247Z,6.10
2023-04-23T09:39:20.720Z,7.00
2023-04-23T09:44:30.001Z,5.60
2023-04-23T09:49:46.894Z,7.90
2023-04-23T09:54:54.585Z,6.50
2023-04-23T10:00:15.344Z,11.50
2023-04-23T10:05:29.390Z,5.30
2023-04-23T10:16:22.251Z,6.10
2023-04-23T10:21:42.964Z,5.50
2023-04-23T10:27:03.207Z,6.70
2023-04-23T10:32:10.728Z,6.00
2023-04-23T10:37:19.851Z,5.30
2023-04-23T10:42:28.340Z,5.70
2023-04-23T10:47:35.898Z,5.50
2023-04-23T10:52:47.288Z,5.40
2023-04-23T10:58:04.370Z,5.50
2023-04-23T11:03:31.809Z,5.60
2023-04-23T11:08:53.476Z,5.10
2023-04-23T11:14:14.621Z,5.60
2023-04-23T11:19:22.420Z,5.80
2023-04-23T11:24:31.500Z,6.30
2023-04-23T11:29:41.499Z,6.50
2023-04-23T11:34:51.094Z,4.30
2023-04-23T11:39:59.556Z,4.80
2023-04-23T11:45:08.059Z,5.30
2023-04-23T11:50:21.518Z,5.80
2023-04-23T11:55:30.838Z,5.50
2023-04-23T12:00:38.166Z,5.30
2023-04-23T12:05:48.445Z,5.50
2023-04-23T12:10:57.115Z,4.70
2023-04-23T12:16:05.831Z,3.90
2023-04-23T12:21:14.133Z,4.50
2023-04-23T12:26:25.359Z,5.70
2023-04-23T12:31:33.662Z,4.30
2023-04-23T12:36:46.166Z,4.70
2023-04-23T12:41:54.828Z,5.80
2023-04-23T12:47:05.256Z,4.20
2023-04-23T12:52:14.146Z,8.70
2023-04-23T12:57:23.618Z,3.20
2023-04-23T13:02:31.996Z,5.00
2023-04-23T13:07:39.860Z,5.00
2023-04-23T13:12:47.537Z,5.10
2023-04-23T13:17:55.259Z,7.60
2023-04-23T13:23:03.533Z,5.00
2023-04-23T13:28:11.201Z,3.60
2023-04-23T13:33:19.635Z,4.60
2023-04-23T13:38:27.949Z,11.10
2023-04-23T13:43:35.807Z,5.30
2023-04-23T13:48:43.393Z,4.50
2023-04-23T13:53:51.156Z,4.50
2023-04-23T13:59:18.239Z,4.90
2023-04-23T14:04:27.736Z,4.50
2023-04-23T14:09:35.511Z,4.60
2023-04-23T14:14:43.478Z,4.00
2023-04-23T14:19:50.947Z,5.00
2023-04-23T14:25:06.887Z,5.00
2023-04-23T14:30:18.944Z,6.80
2023-04-23T14:35:36.035Z,4.80
2023-04-23T14:40:49.848Z,6.40
2023-04-23T14:45:57.190Z,5.50
2023-04-23T14:51:05.049Z,5.10
2023-04-23T14:56:12.706Z,6.60
2023-04-23T15:01:20.419Z,5.00
2023-04-23T15:06:28.404Z,5.40
2023-04-23T15:11:39.291Z,6.20
2023-04-23T15:16:49.276Z,6.50
2023-04-23T15:21:57.499Z,5.70
2023-04-23T15:27:05.070Z,5.70
2023-04-23T15:32:13.077Z,7.50
2023-04-23T15:37:21.554Z,4.30
2023-04-23T15:42:29.352Z,4.80
2023-04-23T15:47:40.717Z,3.80
2023-04-23T15:52:49.870Z,5.40
2023-04-23T15:57:59.445Z,6.20
2023-04-23T16:03:08.313Z,5.90
2023-04-23T16:08:17.306Z,7.10
2023-04-23T16:13:27.311Z,3.80
2023-04-23T16:18:34.886Z,4.40
2023-04-23T16:23:42.407Z,4.40
2023-04-23T16:28:52.415Z,6.80
2023-04-23T16:34:13.097Z,5.50
2023-04-23T16:39:21.016Z,6.50
2023-04-23T16:44:29.342Z,5.10
2023-04-23T16:49:36.964Z,6.10
2023-04-23T16:54:46.054Z,4.80
2023-04-23T16:59:54.490Z,5.10
2023-04-23T17:05:02.418Z,5.30
2023-04-23T17:10:12.788Z,5.40
2023-04-23T17:15:21.033Z,5.30
2023-04-23T17:20:29.441Z,5.30
2023-04-23T17:25:37.038Z,7.20
2023-04-23T17:30:45.818Z,6.30
2023-04-23T17:35:55.719Z,5.50
2023-04-23T17:41:03.824Z,4.90
2023-04-23T17:46:11.145Z,7.30
2023-04-23T17:51:18.644Z,8.10
2023-04-23T17:56:27.454Z,12.20
2023-04-23T18:01:35.047Z,13.10
2023-04-23T18:06:42.636Z,7.50
2023-04-23T18:11:50.002Z,6.40
2023-04-23T18:16:58.062Z,5.90
2023-04-23T18:22:05.629Z,6.20
2023-04-23T18:27:12.935Z,5.10
2023-04-23T18:32:31.250Z,5.80
2023-04-23T18:37:49.293Z,5.90
2023-04-23T18:42:56.847Z,8.10
2023-04-23T18:48:37.760Z,5.30
2023-04-23T18:53:45.132Z,4.40
2023-04-23T18:58:52.558Z,4.60
2023-04-23T19:04:00.459Z,6.20
2023-04-23T19:09:08.279Z,6.30
2023-04-23T19:14:16.197Z,10.00
2023-04-23T19:19:24.790Z,11.00
2023-04-23T19:24:33.269Z,9.20
2023-04-23T19:29:41.432Z,8.40
2023-04-23T19:34:48.956Z,9.10
2023-04-23T19:39:56.483Z,6.20
2023-04-23T19:45:04.294Z,5.70
2023-04-23T19:50:14.252Z,5.60
2023-04-23T19:55:27.711Z,10.40
2023-04-23T20:00:37.966Z,8.50
2023-04-23T20:05:46.583Z,5.70
2023-04-23T20:10:54.102Z,6.10
2023-04-23T20:16:01.631Z,8.10
2023-04-23T20:21:09.669Z,7.70
2023-04-23T20:26:17.169Z,6.70
2023-04-23T20:31:24.840Z,7.60
2023-04-23T20:36:33.808Z,7.30
2023-04-23T20:41:41.802Z,6.80
2023-04-23T20:46:49.867Z,5.90
2023-04-23T20:51:57.285Z,6.60
2023-04-23T20:57:05.094Z,8.40
2023-04-23T21:02:15.718Z,6.20
2023-04-23T21:07:23.601Z,6.80
2023-04-23T21:12:31.666Z,7.20
2023-04-23T21:17:39.032Z,6.30
2023-04-23T21:22:46.681Z,5.80
2023-04-23T21:27:54.743Z,7.20
2023-04-23T21:33:02.622Z,7.00
2023-04-23T21:38:10.434Z,5.90
2023-04-23T21:43:18.276Z,7.20
2023-04-23T21:48:25.691Z,9.60
2023-04-23T21:53:33.000Z,8.10
2023-04-23T21:58:40.584Z,16.40
2023-04-23T22:03:48.432Z,14.80
2023-04-23T22:08:56.609Z,13.10
2023-04-23T22:14:04.387Z,8.60
2023-04-23T22:19:12.544Z,8.40
2023-04-23T22:24:20.511Z,6.90
2023-04-23T22:29:28.080Z,6.90
2023-04-23T22:34:35.523Z,9.30
2023-04-23T22:39:43.265Z,7.90
2023-04-23T22:44:51.210Z,8.30
2023-04-23T22:49:59.323Z,9.10
2023-04-23T22:55:07.968Z,8.70
2023-04-23T23:00:17.568Z,7.70
2023-04-23T23:05:25.204Z,7.60
2023-04-23T23:10:32.924Z,12.40
2023-04-23T23:15:40.464Z,8.90
2023-04-23T23:20:48.078Z,8.60
2023-04-23T23:25:56.726Z,6.80
2023-04-23T23:31:05.749Z,9.70
2023-04-23T23:36:13.465Z,7.40
2023-04-23T23:41:21.679Z,9.90
2023-04-23T23:46:29.456Z,7.00
2023-04-23T23:51:36.922Z,9.00
2023-04-23T23:56:44.630Z,10.20
